»·PEaware :: SWA9849 KSLC-KSAN

SWA9849 :: KSLC-KSAN

FLIGHT INFORMATION

Flight Status: Arrived
Operator:
Southwest Airlines
More flights by this operator :: More flights under this callsign
Pilot: Kaylan F. (4928)
Aircraft: BOEING 737-800
(B738)
More flights by this aircraft type
Origin: KSLC Salt Lake City Intl
United States
Destination: KSAN San Diego Intl-Lindbergh
United States
More flights between these airports :: More routes between these airports
Route: WEVIC6 EHK LAKRR Q73 LVELL LUCKI1
File this flight plan on PilotEdge
Remarks:
Altitude:
(Current/Filed)
38,000ft
Speed:
(Current/Filed)
0kts
Departed: 07-Oct-17 10:03 AM
Arrived: 07-Oct-17 11:33 AM
Distance/Time
Traveled:
544nm/1:29
Distance/Time
To Go:
Arrived

Flight Plot

Page will automatically refresh every two minutes.

Flight plan parsing failed; only flown route is shown


Map Options




Map Legend


Flown Route
Filed Route
Departure Airport
Arrival Airport
Navaid (VOR, NDB)
Fix

Horizontal Profiles

Position Reports

Time Latitude Longitude Heading Altitude Ground
Speed
07-Oct-17 09:42 40.788271 -111.982088 103 4235ft 0kts
07-Oct-17 09:43 40.788271 -111.982088 103 4235ft 0kts
07-Oct-17 09:44 40.788271 -111.982088 103 4235ft 0kts
07-Oct-17 09:45 40.788271 -111.982088 103 4235ft 0kts
07-Oct-17 09:46 40.788271 -111.982088 103 4235ft 0kts
07-Oct-17 09:47 40.788271 -111.982088 103 4235ft 0kts
07-Oct-17 09:48 40.788271 -111.982088 103 4235ft 0kts
07-Oct-17 09:49 40.788271 -111.982088 103 4235ft 0kts
07-Oct-17 09:50 40.788271 -111.982088 103 4235ft 0kts
07-Oct-17 09:51 40.788271 -111.982088 103 4235ft 0kts
07-Oct-17 09:52 40.788271 -111.982088 103 4235ft 0kts
07-Oct-17 09:53 40.788271 -111.982088 103 4235ft 0kts
07-Oct-17 09:54 40.788271 -111.982088 103 4235ft 0kts
07-Oct-17 09:55 40.788271 -111.982088 103 4235ft 0kts
07-Oct-17 09:56 40.788283 -111.982151 103 4235ft 2kts
07-Oct-17 09:57 40.788385 -111.982790 70 4235ft 1kts
07-Oct-17 09:58 40.788038 -111.982947 7 4235ft 0kts
07-Oct-17 09:59 40.788038 -111.982947 7 4235ft 0kts
07-Oct-17 10:00 40.788606 -111.982860 6 4235ft 9kts
07-Oct-17 10:01 40.790452 -111.982885 354 4235ft 0kts
07-Oct-17 10:02 40.791746 -111.982395 80 4235ft 15kts
07-Oct-17 10:03 40.792591 -111.977384 356 4235ft 10kts
07-Oct-17 10:04 40.797265 -111.977925 354 4235ft 21kts
07-Oct-17 10:05 40.802517 -111.978447 8 4235ft 15kts
07-Oct-17 10:06 40.806844 -111.978564 3 4235ft 9kts
07-Oct-17 10:07 40.804508 -111.976552 174 4235ft 62kts
07-Oct-17 10:08 40.761707 -111.972247 177 5543ft 189kts
07-Oct-17 10:09 40.702090 -111.968179 178 7223ft 273kts
07-Oct-17 10:10 40.624092 -111.962936 179 11959ft 303kts
07-Oct-17 10:11 40.537912 -111.957144 180 16247ft 320kts
07-Oct-17 10:12 40.447532 -111.951055 180 19904ft 336kts
07-Oct-17 10:13 40.354098 -111.944601 181 23176ft 345kts
07-Oct-17 10:14 40.257197 -111.939929 189 25913ft 352kts
07-Oct-17 10:15 40.159392 -111.956194 190 28328ft 362kts
07-Oct-17 10:16 40.057934 -111.971046 190 30442ft 372kts
07-Oct-17 10:17 39.954298 -111.986114 190 32288ft 380kts
07-Oct-17 10:18 39.849165 -112.001408 190 33927ft 388kts
07-Oct-17 10:19 39.740917 -112.017146 189 35356ft 398kts
07-Oct-17 10:20 39.629725 -112.033303 189 36614ft 408kts
07-Oct-17 10:21 39.515863 -112.049867 189 37682ft 418kts
07-Oct-17 10:22 39.397904 -112.066799 189 37769ft 434kts
07-Oct-17 10:23 39.281516 -112.083244 189 38137ft 414kts
07-Oct-17 10:24 39.166073 -112.099624 189 38140ft 418kts
07-Oct-17 10:25 39.061792 -112.155334 211 38145ft 412kts
07-Oct-17 10:26 38.961973 -112.227734 210 38146ft 416kts
07-Oct-17 10:27 38.861405 -112.299566 209 38149ft 423kts
07-Oct-17 10:28 38.758875 -112.372783 210 38147ft 422kts
07-Oct-17 10:29 38.656729 -112.445760 210 38151ft 422kts
07-Oct-17 10:30 38.554453 -112.518856 210 38155ft 422kts
07-Oct-17 10:31 38.452227 -112.591993 210 38155ft 422kts
07-Oct-17 10:32 38.350606 -112.664665 209 38154ft 422kts
07-Oct-17 10:33 38.248513 -112.737704 209 38153ft 422kts
07-Oct-17 10:34 38.146785 -112.810546 210 38154ft 422kts
07-Oct-17 10:35 38.045025 -112.883440 211 38159ft 422kts
07-Oct-17 10:36 37.942079 -112.957234 212 38174ft 426kts
07-Oct-17 10:37 37.844950 -113.026889 213 38182ft 430kts
07-Oct-17 10:38 37.740998 -113.101879 213 38180ft 431kts
07-Oct-17 10:39 37.636690 -113.176503 213 38181ft 432kts
07-Oct-17 10:40 37.532561 -113.250733 213 38181ft 432kts
07-Oct-17 10:41 37.445669 -113.312694 213 38177ft 432kts
07-Oct-17 10:42 37.324114 -113.399415 213 38144ft 431kts
07-Oct-17 10:43 37.221118 -113.472936 213 38134ft 431kts
07-Oct-17 10:44 37.124715 -113.541784 213 38133ft 431kts
07-Oct-17 10:45 37.020426 -113.616289 214 38133ft 436kts
07-Oct-17 10:46 36.915630 -113.691193 214 38141ft 441kts
07-Oct-17 10:47 36.828610 -113.753421 214 38138ft 440kts
07-Oct-17 10:48 36.722785 -113.829137 214 38137ft 440kts
07-Oct-17 10:50 36.599041 -113.917720 214 38137ft 440kts
07-Oct-17 10:50 36.511103 -113.980702 214 38137ft 440kts
07-Oct-17 10:51 36.405478 -114.056384 214 38124ft 440kts
07-Oct-17 10:53 36.290590 -114.138744 214 38100ft 440kts
07-Oct-17 10:53 36.202593 -114.201854 214 38077ft 440kts
07-Oct-17 10:54 36.097219 -114.277468 215 38071ft 439kts
07-Oct-17 10:55 36.014566 -114.382964 233 38071ft 428kts
07-Oct-17 10:56 35.935263 -114.492728 232 38071ft 429kts
07-Oct-17 10:57 35.856724 -114.600812 232 38067ft 429kts
07-Oct-17 10:58 35.782676 -114.702779 232 38074ft 429kts
07-Oct-17 10:59 35.703500 -114.811953 232 38074ft 429kts
07-Oct-17 11:00 35.624104 -114.921051 232 38065ft 429kts
07-Oct-17 11:01 35.544407 -115.029819 232 38076ft 428kts
07-Oct-17 11:02 35.446024 -115.110033 200 38084ft 450kts
07-Oct-17 11:03 35.326828 -115.154789 204 38048ft 447kts
07-Oct-17 11:04 35.209390 -115.202998 204 37977ft 447kts
07-Oct-17 11:05 35.091968 -115.251365 204 37965ft 447kts
07-Oct-17 11:06 34.974436 -115.299789 204 37953ft 447kts
07-Oct-17 11:07 34.857702 -115.347892 204 37951ft 447kts
07-Oct-17 11:08 34.740228 -115.396306 204 38038ft 447kts
07-Oct-17 11:09 34.622935 -115.444657 204 38093ft 447kts
07-Oct-17 11:10 34.505745 -115.492975 204 38095ft 447kts
07-Oct-17 11:11 34.390807 -115.540371 204 38103ft 436kts
07-Oct-17 11:12 34.276346 -115.587580 204 38095ft 435kts
07-Oct-17 11:13 34.162876 -115.636952 207 38096ft 434kts
07-Oct-17 11:14 34.054386 -115.688394 206 37928ft 439kts
07-Oct-17 11:15 33.941635 -115.741522 207 35746ft 430kts
07-Oct-17 11:16 33.830655 -115.795590 207 33633ft 441kts
07-Oct-17 11:17 33.716562 -115.850399 206 31464ft 442kts
07-Oct-17 11:18 33.604981 -115.902457 206 29161ft 426kts
07-Oct-17 11:19 33.501836 -115.963670 230 27514ft 407kts
07-Oct-17 11:20 33.439010 -116.074329 240 24999ft 396kts
07-Oct-17 11:21 33.378375 -116.179576 239 23066ft 381kts
07-Oct-17 11:22 33.313142 -116.266039 210 20756ft 386kts
07-Oct-17 11:23 33.218046 -116.320171 208 18276ft 374kts
07-Oct-17 11:24 33.127220 -116.373070 208 15815ft 359kts
07-Oct-17 11:25 33.039946 -116.424086 208 14436ft 348kts
07-Oct-17 11:26 32.961594 -116.488161 222 13516ft 346kts
07-Oct-17 11:27 32.890858 -116.559861 221 11605ft 328kts
07-Oct-17 11:28 32.822281 -116.629030 221 9704ft 320kts
07-Oct-17 11:29 32.762088 -116.702134 241 7795ft 309kts
07-Oct-17 11:30 32.721146 -116.790055 244 6505ft 295kts
07-Oct-17 11:31 32.690611 -116.875026 249 6015ft 279kts
07-Oct-17 11:32 32.678725 -116.961541 285 5010ft 247kts
07-Oct-17 11:33 32.695867 -117.033861 286 2976ft 208kts
07-Oct-17 11:34 32.708578 -117.086478 285 2091ft 141kts
07-Oct-17 11:35 32.719061 -117.129138 284 991ft 132kts
07-Oct-17 11:36 32.729039 -117.170852 285 231ft 129kts
07-Oct-17 11:37 32.736236 -117.200703 286 17ft 24kts
07-Oct-17 11:38 32.735758 -117.202114 196 17ft 4kts
07-Oct-17 11:39 32.733305 -117.202619 175 17ft 5kts
07-Oct-17 11:40 32.732963 -117.203498 269 17ft 0kts
07-Oct-17 11:41 32.732962 -117.203553 269 17ft 0kts

Navigation Log

Ident Type
Flight plan parsing failed, navigation log unavailable